M I D A S
Marine Information and Data Acquisition System
Tripno 64 of the Zeeleeuw from 2001-10-29 07:55:50 to 2001-10-29 14:55:00
Back to CruiseResearch ActivitiesStationsMapUnderway DataData graphs

EquipmentUnitsComment
TimeDGPSUTC
LatitudeDGPSDM.mWGS84
LongitudeDGPSDM.mWGS84
TemperatureSBE03/SBE38deg celciusITS90
ConductivitySBE21S/mITS90
SalinitySBE21 Practical Salinity Units
ChlorophylAChelsea fluorimeterg/lCalibrated in Aceton
Missing or incorrect values are displayed as -999
Sea surface data collected by the RV Zeeleeuw from 2001-10-29 07:55:50 to 2001-10-29 14:55:00
Time Latitude Longitude Temperature Conductivity Salinity ChlorophylA
2001-10-29 08:09:56 51°13.689 2°55.905 19.809507 0.151462 0.8022  
2001-10-29 08:10:57 51°13.689 2°55.905 19.810197 0.150376 0.796204  
2001-10-29 08:11:56 51°13.689 2°55.905 19.809751 0.149487 0.791292  
2001-10-29 08:12:56 51°13.689 2°55.906 19.822693 0.148795 0.787499  
2001-10-29 08:13:56 51°13.689 2°55.905 19.82468 0.148104 0.783684  
2001-10-29 08:14:57 51°13.688 2°55.904 19.827844 0.147511 0.780415  
2001-10-29 08:15:56 51°13.688 2°55.905 19.834375 0.147017 0.777695  
2001-10-29 08:16:51 51°13.688 2°55.905 19.826262 0.146622 0.775521  
2001-10-29 08:17:52 51°13.688 2°55.905 19.839769 0.146326 0.773893  
2001-10-29 08:18:52 51°13.688 2°55.905 19.843946 0.14603 0.772266  
2001-10-29 08:19:52 51°13.688 2°55.904 19.867423 0.145733 0.770651  
2001-10-29 08:20:52 51°13.688 2°55.904 19.853881 0.145437 0.769035  
2001-10-29 08:21:52 51°13.688 2°55.905 19.869775 0.145239 0.767966  
2001-10-29 08:22:52 51°13.687 2°55.904 19.860936 0.145042 0.766886  
2001-10-29 08:23:51 51°13.687 2°55.905 19.880233 0.144844 0.765805  
2001-10-29 08:24:51 51°13.687 2°55.905 19.881003 0.144647 0.764748  
2001-10-29 08:25:52 51°13.688 2°55.905 19.886637 0.144449 0.763679  
2001-10-29 08:26:52 51°13.688 2°55.906 19.898511 0.144252 0.76261  
2001-10-29 08:27:51 51°13.687 2°55.906 19.907709 0.144153 0.762087  
2001-10-29 08:28:52 51°13.687 2°55.906 19.922092 0.144054 0.761576  
2001-10-29 08:29:52 51°13.687 2°55.906 19.928168 0.143857 0.760518  
2001-10-29 08:30:52 51°13.687 2°55.905 19.93234 0.143758 0.759995  
2001-10-29 08:31:52 51°13.687 2°55.906 19.949592 0.143659 0.759484  
2001-10-29 08:32:52 51°13.688 2°55.906 19.94534 0.143462 0.75845  
2001-10-29 08:34:13 51°13.688 2°55.906 19.970686 0.143363 0.757949  
2001-10-29 08:35:13 51°13.688 2°55.906 19.966719 0.143264 0.757449  
2001-10-29 08:36:13 51°13.688 2°55.906 19.97522 0.143165 0.756938  
2001-10-29 08:37:13 51°13.688 2°55.906 19.994566 0.143165 0.756961  
2001-10-29 08:38:13 51°13.687 2°55.906 19.999017 0.143066 0.756438  
2001-10-29 08:39:13 51°13.687 2°55.906 20.007555 0.142968 0.755926  
2001-10-29 08:40:13 51°13.687 2°55.906 21.88141 0.142968 0.755937  
2001-10-29 08:41:13 51°13.687 2°55.905 22.352701 0.142869 0.755414  
2001-10-29 08:42:13 51°13.687 2°55.906 22.162006 0.14277 0.75488  
2001-10-29 08:43:13 51°13.687 2°55.906 21.976154 0.14277 0.754891  
2001-10-29 08:44:13 51°13.688 2°55.906 21.585187 0.142671 0.754357  
2001-10-29 08:45:14 51°13.688 2°55.906 22.013135 0.142671 0.754334  
2001-10-29 08:46:13 51°13.687 2°55.907 22.087472 0.142671 0.754334  
2001-10-29 08:47:13 51°13.685 2°55.905 21.740204 0.142573 0.753788  
2001-10-29 08:48:14 51°13.69 2°55.879 22.09639 0.142573 0.753788  
2001-10-29 08:49:14 51°13.694 2°55.803 21.785594 0.142474 0.753231  
2001-10-29 08:50:13 51°13.688 2°55.742 21.665307 0.142474 0.753196  
2001-10-29 08:51:13 51°13.701 2°55.737 21.66835 0.142474 0.753162  
2001-10-29 08:52:13 51°13.764 2°55.691 21.873175 0.142375 0.752639  
2001-10-29 08:53:13 51°13.873 2°55.596 21.894964 0.142375 0.752662  
2001-10-29 08:54:13 51°14.018 2°55.493 21.148361 0.142375 0.752628  
2001-10-29 08:55:13 51°14.167 2°55.382 22.011247 0.142375 0.752605  
2001-10-29 08:56:13 51°14.289 2°55.213 21.443788 0.142276 0.752048  
2001-10-29 08:57:13 51°14.397 2°55.016 21.834938 0.142276 0.752071  
2001-10-29 08:58:13 51°14.453 2°54.798 21.73823 0.142276 0.752048  
2001-10-29 08:59:13 51°14.44 2°54.544 21.855084 0.142276 0.752071  
2001-10-29 09:00:13 51°14.416 2°54.29 21.214935 0.142276 0.752071  
2001-10-29 09:01:13 51°14.382 2°54.029 21.510245 0.142178 0.751525  
2001-10-29 09:02:13 51°14.289 2°53.782 22.061496 0.142276 0.752082  
2001-10-29 09:03:13 51°14.19 2°53.522 21.472289 0.142178 0.751559  
2001-10-29 09:04:13 51°14.088 2°53.252 21.407304 0.142178 0.751559  
2001-10-29 09:05:13 51°13.985 2°52.98 22.148228 0.142178 0.75157  
2001-10-29 09:06:14 51°13.884 2°52.702 22.094779 0.142178 0.751559  
2001-10-29 09:07:13 51°13.784 2°52.435 21.691862 0.142178 0.751582  
2001-10-29 09:08:13 51°13.684 2°52.162 22.079652 0.142178 0.75165  
2001-10-29 09:09:13 51°13.581 2°51.893 21.865371 0.142178 0.75157  
2001-10-29 09:10:13 51°13.477 2°51.623 21.808673 0.142178 0.751673  
2001-10-29 09:11:13 51°13.384 2°51.344 22.20858 0.142178 0.751707  
2001-10-29 09:12:13 51°13.285 2°51.071 22.41421 0.142178 0.751707  
2001-10-29 09:13:14 51°13.185 2°50.793 21.587798 0.142178 0.751741  
2001-10-29 09:14:13 51°13.09 2°50.526 22.146462 0.142178 0.751752  
2001-10-29 09:15:13 51°12.987 2°50.259 21.573315 0.142178 0.751775  
2001-10-29 09:16:13 51°12.884 2°49.991 21.66254 0.142079 0.75124  
2001-10-29 09:17:13 51°12.782 2°49.72 21.777939 0.142079 0.75124  
2001-10-29 09:18:13 51°12.677 2°49.454 21.564806 0.142079 0.751252  
2001-10-29 09:19:13 51°12.581 2°49.182 21.861548 0.142079 0.751275  
2001-10-29 09:20:14 51°12.478 2°48.911 22.097922 0.142079 0.751331  
2001-10-29 09:21:13 51°12.377 2°48.649 22.214973 0.142079 0.751343  
2001-10-29 09:22:13 51°12.27 2°48.388 22.450418 0.142079 0.751297  
2001-10-29 09:23:13 51°12.171 2°48.122 22.274133 0.142079 0.751309  
2001-10-29 09:24:13 51°12.077 2°47.852 22.251518 0.142079 0.751309  
2001-10-29 09:25:13 51°11.982 2°47.583 21.781885 0.142079 0.751286  
2001-10-29 09:26:13 51°11.88 2°47.32 22.346124 0.14198 0.750729  
2001-10-29 09:27:14 51°11.786 2°47.042 22.324315 0.14198 0.750729  
2001-10-29 09:28:13 51°11.692 2°46.774 21.989729 0.14198 0.750706  
2001-10-29 09:29:13 51°11.598 2°46.499 22.135233 0.14198 0.750717  
2001-10-29 09:30:13 51°11.502 2°46.226 22.595965 0.14198 0.75074  
2001-10-29 09:31:13 51°11.408 2°45.951 22.359316 0.14198 0.750751  
2001-10-29 09:32:13 51°11.32 2°45.672 22.469727 0.14198 0.750763  
2001-10-29 09:33:13 51°11.223 2°45.4 22.235169 0.141881 0.750239  
2001-10-29 09:34:13 51°11.127 2°45.128 22.311704 0.141881 0.750239  
2001-10-29 09:35:13 51°11.027 2°44.86 21.993427 0.141881 0.750273  
2001-10-29 09:36:13 51°10.928 2°44.591 21.878179 0.141881 0.750285  
2001-10-29 09:37:13 51°10.829 2°44.325 22.290041 0.141881 0.750285  
2001-10-29 09:38:13 51°10.757 2°44.036 22.644714 0.141881 0.750319  
2001-10-29 09:39:14 51°10.679 2°43.744 22.218425 0.141881 0.750342  
2001-10-29 09:40:13 51°10.606 2°43.461 22.524888 0.141881 0.750342  
2001-10-29 09:41:13 51°10.532 2°43.172 22.37231 0.141782 0.749796  
2001-10-29 09:42:14 51°10.458 2°42.877 22.327213 0.141782 0.749807  
2001-10-29 09:43:13 51°10.391 2°42.586 22.566505 0.141782 0.749818  
2001-10-29 09:44:13 51°10.333 2°42.287 23.028362 0.141782 0.749796  
2001-10-29 09:45:13 51°10.263 2°41.996 22.594288 0.141782 0.749807  
2001-10-29 09:46:13 51°10.2 2°41.701 22.609618 0.141782 0.749796  
2001-10-29 09:47:13 51°10.13 2°41.409 22.560728 0.141782 0.749807  
2001-10-29 09:48:13 51°10.081 2°41.108 22.121764 0.141782 0.749818  
2001-10-29 09:49:14 51°10.032 2°40.803 22.363621 0.141684 0.749295  
2001-10-29 09:50:13 51°9.977 2°40.511 22.379549 0.141782 0.749841  
2001-10-29 09:51:13 51°9.932 2°40.209 22.516453 0.141684 0.749306  
2001-10-29 09:52:13 51°9.883 2°39.908 22.728641 0.141684 0.749295  
2001-10-29 09:53:14 51°9.815 2°39.61 22.644324 0.141684 0.749318  
2001-10-29 09:54:13 51°9.757 2°39.318 22.470352 0.141684 0.749352  
2001-10-29 09:55:14 51°9.711 2°39.01 21.847121 0.141684 0.749374  
2001-10-29 09:56:14 51°9.632 2°38.728 22.33524 0.141684 0.749408  
2001-10-29 09:57:14 51°9.58 2°38.438 22.671765 0.141684 0.749454  
2001-10-29 09:58:13 51°9.562 2°38.134 23.066471 0.141684 0.749488  
2001-10-29 09:59:13 51°9.555 2°37.822 22.929487 0.141684 0.749488  
2001-10-29 10:00:13 51°9.553 2°37.512 22.240933 0.141684 0.749465  
2001-10-29 10:01:14 51°9.544 2°37.197 22.452803 0.141684 0.749431  
2001-10-29 10:02:13 51°9.513 2°36.897 22.595536 0.141684 0.749386  
2001-10-29 10:03:13 51°9.482 2°36.591 22.500516 0.141684 0.749374  
2001-10-29 10:04:14 51°9.48 2°36.274 23.16481 0.141684 0.749397  
2001-10-29 10:05:14 51°9.474 2°35.96 22.54894 0.141782 0.749943  
2001-10-29 10:06:13 51°9.47 2°35.651 22.813753 0.141782 0.749932  
2001-10-29 10:07:14 51°9.48 2°35.331 22.705312 0.141782 0.749943  
2001-10-29 10:08:13 51°9.504 2°35.026 22.732418 0.141782 0.749954  
2001-10-29 10:09:14 51°9.577 2°34.73 22.491726 0.141782 0.749932  
2001-10-29 10:10:13 51°9.692 2°34.473 22.776327 0.141782 0.749932  
2001-10-29 10:11:13 51°9.862 2°34.279 22.553 0.141782 0.749932  
2001-10-29 10:12:14 51°10.09 2°34.292 22.437947 0.141782 0.74992  
2001-10-29 10:13:13 51°10.278 2°34.506 22.855396 0.141782 0.749954  
2001-10-29 10:14:14 51°10.474 2°34.732 22.677689 0.141782 0.749966  
2001-10-29 10:15:13 51°10.658 2°34.958 23.147468 0.141782 0.749977  
2001-10-29 10:16:13 51°10.839 2°35.206 23.093054 0.141782 0.749988  
2001-10-29 10:17:14 51°11.03 2°35.446 23.010134 0.141782 0.749988  
2001-10-29 10:18:13 51°11.203 2°35.707 22.904319 0.141782 0.749977  
2001-10-29 10:19:14 51°11.38 2°35.98 23.174563 0.141782 0.749988  
2001-10-29 10:20:13 51°11.547 2°36.247 22.71022 0.141782 0.750045  
2001-10-29 10:21:13 51°11.726 2°36.501 23.259342 0.141782 0.750022  
2001-10-29 10:22:14 51°11.908 2°36.764 22.866746 0.141782 0.750022  
2001-10-29 10:23:13 51°12.08 2°37.018 23.071238 0.141782 0.750068  
2001-10-29 10:24:13 51°12.265 2°37.267 23.217081 0.141782 0.750079  
2001-10-29 10:25:14 51°12.453 2°37.52 23.514048 0.141782 0.750068  
2001-10-29 10:26:13 51°12.642 2°37.751 22.767142 0.141782 0.750102  
2001-10-29 10:27:13 51°12.828 2°37.998 23.130935 0.141881 0.75066  
2001-10-29 10:28:13 51°13.015 2°38.241 23.079647 0.141881 0.750671  
2001-10-29 10:29:14 51°13.206 2°38.493 23.351165 0.141881 0.750648  
2001-10-29 10:30:14 51°13.397 2°38.735 23.266995 0.141782 0.750125  
2001-10-29 10:31:14 51°13.593 2°38.955 23.183153 0.141881 0.750705  
2001-10-29 10:32:14 51°13.809 2°39.079 23.318073 0.141782 0.750147  
2001-10-29 10:33:14 51°14.027 2°39.028 23.482071 0.141782 0.750125  
2001-10-29 10:34:14 51°14.136 2°38.776 23.323711 0.141881 0.750591  
2001-10-29 10:35:13 51°14.137 2°38.473 23.229147 0.141881 0.750546  
2001-10-29 10:36:13 51°14.07 2°38.186 23.146926 0.141782 0.749988  
2001-10-29 10:37:13 51°14.006 2°37.894 22.760526 0.141782 0.749977  
2001-10-29 10:38:14 51°13.93 2°37.606 22.956586 0.141782 0.750011  
2001-10-29 10:39:14 51°13.85 2°37.325 22.432551 0.141782 0.750022  
2001-10-29 10:40:14 51°13.768 2°37.042 23.160552 0.141782 0.750034  
2001-10-29 10:41:13 51°13.689 2°36.765 22.924632 0.141782 0.750068  
2001-10-29 10:42:13 51°13.605 2°36.486 23.343984 0.141782 0.750091  
2001-10-29 10:43:13 51°13.523 2°36.21 23.572649 0.141782 0.750079  
2001-10-29 10:44:14 51°13.44 2°35.928 22.882679 0.141782 0.750125  
2001-10-29 10:45:14 51°13.356 2°35.654 22.903232 0.141782 0.750136  
2001-10-29 10:46:14 51°13.269 2°35.38 22.574271 0.141782 0.750125  
2001-10-29 10:47:14 51°13.182 2°35.104 23.286511 0.141782 0.750159  
2001-10-29 10:48:14 51°13.093 2°34.829 23.574573 0.141782 0.750181  
2001-10-29 10:49:13 51°13.007 2°34.558 23.339814 0.141782 0.750215  
2001-10-29 10:50:14 51°12.916 2°34.275 23.294625 0.141782 0.750204  
2001-10-29 10:51:14 51°12.834 2°33.992 23.143557 0.141782 0.750227  
2001-10-29 10:52:14 51°12.75 2°33.708 23.450003 0.141881 0.750785  
2001-10-29 10:53:14 51°12.667 2°33.425 23.398903 0.141881 0.750807  
2001-10-29 10:54:14 51°12.583 2°33.141 23.427639 0.141881 0.750841  
2001-10-29 10:55:14 51°12.499 2°32.859 23.425672 0.141881 0.750853  
2001-10-29 10:56:14 51°12.415 2°32.577 23.689246 0.141881 0.750864  
2001-10-29 10:57:13 51°12.333 2°32.3 23.119317 0.141881 0.750898  
2001-10-29 10:58:14 51°12.248 2°32.015 23.794991 0.141881 0.750898  
2001-10-29 10:59:13 51°12.165 2°31.742 23.293002 0.141881 0.750921  
2001-10-29 11:00:14 51°12.077 2°31.456 22.745656 0.141881 0.750898  
2001-10-29 11:01:14 51°11.989 2°31.174 23.674374 0.141881 0.750932  
2001-10-29 11:02:14 51°11.899 2°30.893 23.512199 0.141881 0.750921  
2001-10-29 11:03:14 51°11.813 2°30.608 23.354639 0.141881 0.750944  
2001-10-29 11:04:14 51°11.732 2°30.321 22.95581 0.141881 0.750978  
2001-10-29 11:05:14 51°11.647 2°30.039 23.81843 0.141881 0.750966  
2001-10-29 11:06:14 51°11.562 2°29.756 23.591235 0.141881 0.750978  
2001-10-29 11:07:14 51°11.477 2°29.475 23.412675 0.141881 0.750978  
2001-10-29 11:08:14 51°11.391 2°29.196 24.274809 0.141881 0.750989  
2001-10-29 11:09:14 51°11.322 2°28.907 22.948939 0.141881 0.751001  
2001-10-29 11:10:14 51°11.272 2°28.605 23.674451 0.141881 0.750989  
2001-10-29 11:11:14 51°11.241 2°28.298 23.224506 0.141881 0.751012  
2001-10-29 11:12:14 51°11.228 2°27.984 23.642276 0.141881 0.751012  
2001-10-29 11:13:14 51°11.214 2°27.672 23.310502 0.141881 0.751012  
2001-10-29 11:14:14 51°11.198 2°27.359 23.926743 0.141881 0.751001  
2001-10-29 11:15:14 51°11.191 2°27.045 23.49182 0.141881 0.751012  
2001-10-29 11:16:14 51°11.187 2°26.732 23.324715 0.141881 0.751012  
2001-10-29 11:17:14 51°11.182 2°26.418 23.521867 0.141881 0.751012  
2001-10-29 11:18:13 51°11.178 2°26.108 23.678487 0.141881 0.751012  
2001-10-29 11:19:14 51°11.175 2°25.791 23.593121 0.141881 0.751012  
2001-10-29 11:20:14 51°11.176 2°25.482 23.749586 0.14198 0.751547  
2001-10-29 11:21:14 51°11.241 2°25.186 23.839983 0.141881 0.751001  
2001-10-29 11:22:14 51°11.42 2°25.001 23.719173 0.141881 0.751001  
2001-10-29 11:23:14 51°11.657 2°25.017 23.783901 0.141881 0.751023  
2001-10-29 11:24:13 51°11.89 2°25.023 23.724973 0.141881 0.751057  
2001-10-29 11:25:13 51°12.13 2°25.058 24.334207 0.141881 0.751092  
2001-10-29 11:26:14 51°12.373 2°25.106 24.001273 0.14198 0.751661  
2001-10-29 11:27:14 51°12.61 2°25.152 24.110498 0.14198 0.751672  
2001-10-29 11:28:14 51°12.837 2°25.301 23.841709 0.14198 0.751706  
2001-10-29 11:29:13 51°13.049 2°25.49 23.952169 0.141881 0.751171  
2001-10-29 11:30:14 51°13.205 2°25.811 24.182778 0.141881 0.751239  
2001-10-29 11:31:14 51°13.343 2°26.145 23.594237 0.141881 0.751262  
2001-10-29 11:32:13 51°13.494 2°26.462 23.80136 0.141881 0.751319  
2001-10-29 11:33:13 51°13.633 2°26.8 23.816436 0.141881 0.751296  
2001-10-29 11:34:14 51°13.783 2°27.14 23.830319 0.141881 0.751387  
2001-10-29 11:35:13 51°13.925 2°27.468 23.598507 0.141881 0.751376  
2001-10-29 11:36:13 51°14.072 2°27.792 23.695778 0.141881 0.751422  
2001-10-29 11:37:14 51°14.215 2°28.135 23.330972 0.141881 0.751444  
2001-10-29 11:38:13 51°14.359 2°28.461 24.067852 0.141881 0.75141  
2001-10-29 11:39:13 51°14.504 2°28.796 23.934135 0.141881 0.751433  
2001-10-29 11:40:14 51°14.652 2°29.134 23.626895 0.141881 0.751444  
2001-10-29 11:41:13 51°14.788 2°29.462 24.196134 0.141881 0.751547  
2001-10-29 11:42:14 51°14.944 2°29.785 23.804544 0.141881 0.751558  
2001-10-29 11:43:14 51°15.103 2°30.096 24.153997 0.141782 0.751068  
2001-10-29 11:44:14 51°15.257 2°30.417 23.981796 0.141782 0.751125  
2001-10-29 11:45:14 51°15.411 2°30.732 23.969434 0.141782 0.75108  
2001-10-29 11:46:14 51°15.566 2°31.049 23.760144 0.141782 0.751125  
2001-10-29 11:47:13 51°15.716 2°31.359 23.930803 0.141782 0.751114  
2001-10-29 11:48:14 51°15.871 2°31.683 24.323085 0.141782 0.751159  
2001-10-29 11:49:14 51°16.013 2°32.013 24.014204 0.141782 0.751239  
2001-10-29 11:50:14 51°16.102 2°32.381 24.278011 0.141782 0.751228  
2001-10-29 11:51:14 51°16.119 2°32.764 24.07221 0.141782 0.751251  
2001-10-29 11:52:14 51°16.066 2°33.131 24.121576 0.141782 0.751239  
2001-10-29 11:53:14 51°15.948 2°33.447 23.938768 0.141782 0.751251  
2001-10-29 11:54:14 51°15.772 2°33.674 23.978773 0.141782 0.751251  
2001-10-29 11:55:14 51°15.625 2°33.947 24.592189 0.141684 0.750749  
2001-10-29 11:56:14 51°15.461 2°34.196 24.221962 0.141782 0.751342  
2001-10-29 11:57:14 51°15.314 2°34.462 23.977778 0.141684 0.750829  
2001-10-29 11:58:13 51°15.339 2°34.818 23.895906 0.141684 0.750817  
2001-10-29 11:59:14 51°15.493 2°35.131 23.694664 0.141684 0.750863  
2001-10-29 12:00:14 51°15.687 2°35.373 23.71948 0.141684 0.750943  
2001-10-29 12:01:14 51°15.875 2°35.634 24.037151 0.141684 0.750931  
2001-10-29 12:02:14 51°16.071 2°35.883 24.38507 0.141684 0.751022  
2001-10-29 12:03:14 51°16.263 2°36.142 24.244234 0.141684 0.751022  
2001-10-29 12:04:14 51°16.455 2°36.397 24.497823 0.141684 0.751079  
2001-10-29 12:05:14 51°16.648 2°36.649 23.982179 0.141684 0.751148  
2001-10-29 12:06:14 51°16.843 2°36.905 23.869579 0.141684 0.751114  
2001-10-29 12:07:14 51°17.059 2°37.07 24.241031 0.141684 0.751171  
2001-10-29 12:08:14 51°17.294 2°37.082 24.287043 0.141585 0.75068  
2001-10-29 12:09:14 51°17.531 2°37.082 24.08058 0.141585 0.750703  
2001-10-29 12:10:14 51°17.763 2°37.062 24.025946 0.141585 0.750737  
2001-10-29 12:11:14 51°17.995 2°37.042 24.29234 0.141585 0.750794  
2001-10-29 12:12:14 51°18.225 2°37.012 24.421672 0.141585 0.750851  
2001-10-29 12:13:14 51°18.453 2°36.996 24.580727 0.141585 0.750874  
2001-10-29 12:14:14 51°18.679 2°36.972 24.493073 0.141585 0.751011  
2001-10-29 12:15:14 51°18.907 2°36.948 24.579095 0.141585 0.751011  
2001-10-29 12:16:14 51°19.136 2°36.932 24.077943 0.141585 0.751068  
2001-10-29 12:17:14 51°19.368 2°36.911 24.38271 0.141585 0.751148  
2001-10-29 12:18:14 51°19.603 2°36.955 24.191479 0.141585 0.751239  
2001-10-29 12:19:14 51°19.811 2°37.152 24.593897 0.141585 0.751273  
2001-10-29 12:20:14 51°19.975 2°37.44 24.134141 0.141486 0.750817  
2001-10-29 12:21:14 51°20.147 2°37.709 24.439966 0.141486 0.750908  
2001-10-29 12:22:14 51°20.323 2°37.977 24.530951 0.141486 0.750942  
2001-10-29 12:23:14 51°20.489 2°38.264 24.187281 0.141486 0.751045  
2001-10-29 12:24:14 51°20.658 2°38.545 24.337482 0.141486 0.751011  
2001-10-29 12:25:14 51°20.821 2°38.834 24.842945 0.141486 0.751079  
2001-10-29 12:26:14 51°20.965 2°39.141 24.078401 0.141486 0.751148  
2001-10-29 12:27:14 51°21.004 2°39.507 24.470991 0.141486 0.751136  
2001-10-29 12:28:13 51°20.97 2°39.87 23.919696 0.141486 0.751125  
2001-10-29 12:29:14 51°20.913 2°40.239 24.365543 0.141486 0.751205  
2001-10-29 12:30:13 51°20.876 2°40.602 24.562431 0.141387 0.750691  
2001-10-29 12:31:14 51°20.811 2°40.968 24.786989 0.141387 0.75068  
2001-10-29 12:32:14 51°20.755 2°41.332 24.445328 0.141387 0.750817  
2001-10-29 12:33:14 51°20.696 2°41.698 24.715307 0.141387 0.750851  
2001-10-29 12:34:14 51°20.636 2°42.062 24.449017 0.141387 0.750885  
2001-10-29 12:35:14 51°20.577 2°42.425 24.450652 0.141387 0.750999  
2001-10-29 12:36:14 51°20.513 2°42.787 24.06273 0.141387 0.750942  
2001-10-29 12:37:14 51°20.457 2°43.145 24.385679 0.141289 0.750497  
2001-10-29 12:38:14 51°20.394 2°43.506 24.265775 0.141289 0.750531  
2001-10-29 12:39:14 51°20.335 2°43.865 24.308533 0.141289 0.750577  
2001-10-29 12:40:14 51°20.279 2°44.223 24.657812 0.141289 0.750657  
2001-10-29 12:41:14 51°20.219 2°44.587 24.50983 0.141289 0.750668  
2001-10-29 12:42:14 51°20.163 2°44.951 24.304647 0.141289 0.75076  
2001-10-29 12:43:14 51°20.107 2°45.315 24.099839 0.141289 0.750851  
2001-10-29 12:44:14 51°20.053 2°45.679 24.294055 0.14119 0.750325  
2001-10-29 12:45:14 51°19.994 2°46.039 24.872324 0.14119 0.750337  
2001-10-29 12:46:14 51°19.901 2°46.376 24.503181 0.14119 0.750371  
2001-10-29 12:47:14 51°19.79 2°46.695 24.540597 0.14119 0.750451  
2001-10-29 12:48:14 51°19.681 2°47.011 24.314667 0.14119 0.750417  
2001-10-29 12:49:14 51°19.568 2°47.322 24.372586 0.14119 0.750474  
2001-10-29 12:50:14 51°19.445 2°47.626 24.350772 0.14119 0.750497  
2001-10-29 12:51:14 51°19.328 2°47.931 24.42791 0.14119 0.750588  
2001-10-29 12:52:14 51°19.208 2°48.239 25.022969 0.141091 0.750016  
2001-10-29 12:53:14 51°19.089 2°48.541 24.814083 0.141091 0.750096  
2001-10-29 12:54:14 51°18.97 2°48.845 24.55423 0.141091 0.750108  
2001-10-29 12:55:14 51°18.849 2°49.143 24.242289 0.141091 0.750176  
2001-10-29 12:56:14 51°18.726 2°49.441 24.160754 0.141091 0.750234  
2001-10-29 12:57:14 51°18.603 2°49.739 24.8033 0.140992 0.749753  
2001-10-29 12:58:14 51°18.481 2°50.041 24.403373 0.140992 0.749799  
2001-10-29 12:59:14 51°18.354 2°50.336 24.744549 0.140992 0.749879  
2001-10-29 13:00:14 51°18.223 2°50.622 25.037831 0.140992 0.74989  
2001-10-29 13:01:14 51°18.095 2°50.913 25.015234 0.140992 0.749947  
2001-10-29 13:02:14 51°17.963 2°51.197 24.742125 0.140992 0.749959  
2001-10-29 13:03:14 51°17.835 2°51.484 24.596629 0.140992 0.750005  
2001-10-29 13:04:14 51°17.705 2°51.76 24.645451 0.140894 0.749467  
2001-10-29 13:05:14 51°17.556 2°52.011 24.899085 0.140894 0.749524  
2001-10-29 13:06:14 51°17.386 2°52.219 24.590102 0.140894 0.749593  
2001-10-29 13:07:14 51°17.208 2°52.416 24.700341 0.140894 0.749615  
2001-10-29 13:08:14 51°17.024 2°52.598 25.299843 0.140894 0.749673  
2001-10-29 13:09:14 51°16.838 2°52.779 24.695945 0.140894 0.74965  
2001-10-29 13:10:14 51°16.655 2°52.967 24.566569 0.140894 0.749707  
2001-10-29 13:11:14 51°16.47 2°53.154 24.886159 0.140795 0.749238  
2001-10-29 13:12:14 51°16.286 2°53.339 24.820098 0.140795 0.749261  
2001-10-29 13:13:14 51°16.099 2°53.522 25.216323 0.140795 0.749375  
2001-10-29 13:14:14 51°15.913 2°53.708 24.700644 0.140795 0.749352  
2001-10-29 13:15:14 51°15.728 2°53.892 24.503143 0.140795 0.749386  
2001-10-29 13:16:14 51°15.539 2°54.073 25.526458 0.140795 0.749443  
2001-10-29 13:17:14 51°15.35 2°54.251 25.196679 0.140795 0.749478  
2001-10-29 13:18:14 51°15.162 2°54.433 24.620797 0.140696 0.748997  
2001-10-29 13:19:14 51°14.97 2°54.59 24.9244 0.140696 0.749077  
2001-10-29 13:20:14 51°14.815 2°54.709 25.094688 0.140696 0.749111  
2001-10-29 13:21:14 51°14.711 2°54.784 24.909703 0.140696 0.749168  
2001-10-29 13:22:14 51°14.614 2°54.837 24.827664 0.140696 0.749168  
2001-10-29 13:23:14 51°14.455 2°54.956 25.210603 0.140696 0.749283  
2001-10-29 13:24:14 51°14.321 2°55.146 24.884534 0.140696 0.749317  
2001-10-29 13:25:14 51°14.196 2°55.356 24.54785 0.140597 0.748813  
2001-10-29 13:26:14 51°14.049 2°55.468 24.817677 0.140597 0.748836  
2001-10-29 13:27:14 51°13.92 2°55.563 24.671385 0.140597 0.748893  
2001-10-29 13:28:14 51°13.823 2°55.635 24.564291 0.140597 0.748939  
2001-10-29 13:29:14 51°13.754 2°55.707 24.723111 0.140597 0.748996  
2001-10-29 13:30:14 51°13.717 2°55.786 24.794558 0.140597 0.74903  
2001-10-29 13:31:14 51°13.688 2°55.849 24.085624 0.140597 0.74903  
2001-10-29 13:32:14 51°13.665 2°55.914 24.743375 0.140597 0.749053  
2001-10-29 13:33:14 51°13.651 2°55.979 24.788541 0.140597 0.749133  
2001-10-29 13:34:14 51°13.644 2°55.999 25.055519 0.140894 0.751565  
2001-10-29 13:35:14 51°13.639 2°56.004 25.049108 0.140894 0.751105